Time;durP1;ratioP1;P1;durP2;ratioP2;P2;SDS_P1;SDS_P2;PMS_P1;PMS_P2;Temp;Humidity;BMP_temperature;BMP_pressure;BME280_temperature;BME280_humidity;BME280_pressure;Samples;Min_cycle;Max_cycle;Signal;HPM_P1;HPM_P2
2021/11/10 00:01:15;;;;;;;11.60;7.67;;;7.50;99.90;;;;;;5023823;28;20819;-62
2021/11/10 00:03:43;;;;;;;9.87;7.63;;;7.40;99.90;;;;;;5021932;28;20856;-62
2021/11/10 00:06:12;;;;;;;14.83;7.30;;;7.40;99.90;;;;;;5020670;28;20243;-62
2021/11/10 00:08:40;;;;;;;10.53;7.23;;;7.40;99.90;;;;;;5018400;28;20271;-62
2021/11/10 00:11:08;;;;;;;9.20;7.10;;;7.40;99.90;;;;;;5021400;28;20786;-62
2021/11/10 00:13:38;;;;;;;11.50;7.07;;;7.40;99.90;;;;;;5012822;28;20322;-62
2021/11/10 00:16:07;;;;;;;10.97;6.83;;;7.40;99.90;;;;;;5023026;28;20239;-62
2021/11/10 00:18:35;;;;;;;9.23;7.30;;;7.40;99.90;;;;;;5021684;28;20242;-62
2021/11/10 00:21:04;;;;;;;12.20;7.60;;;7.30;99.90;;;;;;5023320;28;20620;-62
2021/11/10 00:23:32;;;;;;;11.50;7.70;;;7.30;99.90;;;;;;5021385;28;20327;-62
2021/11/10 00:26:02;;;;;;;12.20;7.63;;;7.30;99.90;;;;;;5015659;28;20247;-62
2021/11/10 00:28:33;;;;;;;11.43;7.30;;;7.30;99.90;;;;;;5021286;28;20256;-62
2021/11/10 00:31:05;;;;;;;16.00;7.30;;;7.30;99.90;;;;;;5012972;28;20232;-62
2021/11/10 00:33:33;;;;;;;14.03;6.77;;;7.30;99.90;;;;;;5020191;28;20264;-62
2021/11/10 00:36:02;;;;;;;10.40;7.20;;;7.30;99.90;;;;;;5023317;28;20608;-62
2021/11/10 00:38:31;;;;;;;12.17;7.70;;;7.30;99.90;;;;;;5019745;28;20236;-62
2021/11/10 00:40:59;;;;;;;9.73;6.20;;;7.30;99.90;;;;;;5021480;28;20224;-62
2021/11/10 00:43:28;;;;;;;9.90;7.13;;;7.40;99.90;;;;;;5016534;28;20239;-62
2021/11/10 00:45:57;;;;;;;11.93;6.90;;;7.30;99.90;;;;;;5024791;28;20958;-62
2021/11/10 00:48:27;;;;;;;10.90;6.67;;;7.20;99.90;;;;;;5019159;28;20331;-62
2021/11/10 00:50:57;;;;;;;13.37;7.37;;;7.30;99.90;;;;;;5017065;28;20232;-62
2021/11/10 00:53:25;;;;;;;14.40;7.57;;;7.30;99.90;;;;;;5017089;28;20239;-62
2021/11/10 00:55:57;;;;;;;10.67;7.10;;;7.30;99.90;;;;;;5037213;28;20232;-62
2021/11/10 00:58:26;;;;;;;16.97;7.60;;;7.30;99.90;;;;;;5014149;28;20510;-62
2021/11/10 01:00:55;;;;;;;12.13;7.07;;;7.30;99.90;;;;;;5002459;28;20250;-62
2021/11/10 01:03:27;;;;;;;14.90;6.80;;;7.30;99.90;;;;;;5005228;28;20264;-62
2021/11/10 01:05:58;;;;;;;12.13;7.00;;;7.30;99.90;;;;;;5021337;28;20233;-62
2021/11/10 01:08:30;;;;;;;11.40;7.27;;;7.30;99.90;;;;;;4994323;28;20237;-62
2021/11/10 01:10:59;;;;;;;9.00;6.80;;;7.20;99.90;;;;;;4997562;28;20233;-62
2021/11/10 01:13:29;;;;;;;11.90;7.10;;;7.20;99.90;;;;;;5003836;28;20915;-62
2021/11/10 01:16:00;;;;;;;13.47;7.10;;;7.20;99.90;;;;;;5011911;28;20589;-62
2021/11/10 01:18:29;;;;;;;12.23;6.60;;;7.20;99.90;;;;;;4990574;28;20229;-62
2021/11/10 01:21:05;;;;;;;10.07;7.20;;;7.30;99.90;;;;;;5012493;28;20253;-62
2021/11/10 01:23:36;;;;;;;9.83;6.90;;;7.30;99.90;;;;;;5001484;28;20263;-62
2021/11/10 01:26:05;;;;;;;12.63;6.97;;;7.20;99.90;;;;;;5004555;28;20229;-62
2021/11/10 01:28:34;;;;;;;10.70;7.00;;;7.20;99.90;;;;;;5005400;28;20245;-62
2021/11/10 01:31:02;;;;;;;12.47;7.07;;;7.20;99.90;;;;;;5001770;28;20237;-62
2021/11/10 01:33:33;;;;;;;15.70;8.00;;;7.20;99.90;;;;;;4995125;28;20266;-62
2021/11/10 01:36:04;;;;;;;10.00;6.53;;;7.20;99.90;;;;;;5012256;28;20287;-62
2021/11/10 01:38:33;;;;;;;12.83;7.33;;;7.20;99.90;;;;;;5010814;28;20348;-62
2021/11/10 01:41:01;;;;;;;12.03;7.00;;;7.20;99.90;;;;;;5008479;28;20232;-62
2021/11/10 01:43:33;;;;;;;12.07;7.00;;;7.20;99.90;;;;;;5006660;28;20731;-62
2021/11/10 01:46:04;;;;;;;11.80;7.07;;;7.20;99.90;;;;;;5002359;28;20725;-62
2021/11/10 01:48:36;;;;;;;9.70;6.27;;;7.20;99.90;;;;;;4989682;28;20280;-62
2021/11/10 01:51:08;;;;;;;9.60;6.87;;;7.20;99.90;;;;;;5010659;28;20788;-62
2021/11/10 01:53:37;;;;;;;12.57;7.83;;;7.20;99.90;;;;;;5001376;28;20640;-62
2021/11/10 01:56:06;;;;;;;12.60;7.07;;;7.20;99.90;;;;;;5016739;28;20292;-62
2021/11/10 01:58:36;;;;;;;12.50;6.70;;;7.20;99.90;;;;;;5024921;28;20256;-62
2021/11/10 02:01:05;;;;;;;9.73;6.80;;;7.20;99.90;;;;;;5016198;28;20237;-62
2021/11/10 02:03:34;;;;;;;12.60;6.83;;;7.20;99.90;;;;;;5012158;28;20249;-62
2021/11/10 02:06:24;;;;;;;13.60;7.03;;;7.20;99.90;;;;;;5007826;28;20356;-62
2021/11/10 02:09:01;;;;;;;10.47;6.63;;;7.20;99.90;;;;;;5008603;28;20326;-62
2021/11/10 02:11:34;;;;;;;13.20;6.80;;;7.20;99.90;;;;;;5002443;28;20244;-62
2021/11/10 02:14:08;;;;;;;10.57;7.57;;;7.20;99.90;;;;;;5022843;28;20303;-62
2021/11/10 02:16:40;;;;;;;12.63;7.30;;;7.20;99.90;;;;;;5023866;28;20585;-62
2021/11/10 02:19:16;;;;;;;10.37;7.03;;;7.20;99.90;;;;;;5022674;28;20664;-62
2021/11/10 02:21:54;;;;;;;11.37;7.37;;;7.20;99.90;;;;;;5010124;28;20224;-62
2021/11/10 02:24:28;;;;;;;10.83;6.70;;;7.20;99.90;;;;;;4994096;28;20760;-62
2021/11/10 02:26:58;;;;;;;11.17;7.43;;;7.10;99.90;;;;;;5001355;28;20665;-62
2021/11/10 02:29:31;;;;;;;12.40;7.23;;;7.10;99.90;;;;;;4999440;28;20778;-62
2021/11/10 02:32:00;;;;;;;13.30;7.30;;;7.10;99.90;;;;;;5000555;28;20257;-62
2021/11/10 02:34:28;;;;;;;13.13;7.50;;;7.10;99.90;;;;;;4997238;28;20229;-62
2021/11/10 02:36:58;;;;;;;11.63;7.77;;;7.10;99.90;;;;;;5012022;28;20237;-62
2021/11/10 02:39:26;;;;;;;10.60;7.00;;;7.10;99.90;;;;;;5004895;28;20736;-62
2021/11/10 02:41:55;;;;;;;11.60;7.57;;;7.00;99.90;;;;;;5002321;28;20275;-62
2021/11/10 02:44:24;;;;;;;12.67;7.50;;;7.00;99.90;;;;;;5007422;28;21078;-62
2021/11/10 02:46:53;;;;;;;12.03;7.53;;;7.00;99.90;;;;;;4997298;28;20241;-62
2021/11/10 02:49:28;;;;;;;10.10;7.23;;;7.00;99.90;;;;;;5004016;28;20611;-62
2021/11/10 02:52:00;;;;;;;12.33;6.93;;;7.00;99.90;;;;;;5018710;28;20840;-62
2021/11/10 02:54:31;;;;;;;12.57;7.67;;;7.00;99.90;;;;;;4997538;28;20234;-62
2021/11/10 02:57:02;;;;;;;13.23;7.27;;;7.00;99.90;;;;;;4999243;28;20584;-65
2021/11/10 02:59:31;;;;;;;18.37;7.57;;;6.90;99.90;;;;;;4992874;28;20659;-65
2021/11/10 03:02:02;;;;;;;12.57;6.47;;;7.00;99.90;;;;;;5003294;28;20227;-65
2021/11/10 03:04:37;;;;;;;14.90;6.90;;;7.10;99.90;;;;;;4997759;28;20233;-64
2021/11/10 03:07:07;;;;;;;11.00;7.63;;;7.30;99.90;;;;;;5010424;28;20233;-64
2021/11/10 03:09:37;;;;;;;11.40;7.30;;;7.10;99.90;;;;;;5008865;28;20295;-64
2021/11/10 03:12:14;;;;;;;12.67;7.70;;;7.20;99.90;;;;;;5004801;28;20235;-65
2021/11/10 03:14:46;;;;;;;9.67;7.67;;;7.10;99.90;;;;;;4997341;28;20240;-64
2021/11/10 03:17:19;;;;;;;12.00;7.03;;;7.00;99.90;;;;;;5002565;28;21156;-64
2021/11/10 03:19:49;;;;;;;12.40;8.00;;;6.90;99.90;;;;;;4996436;28;20240;-64
2021/11/10 03:22:21;;;;;;;11.37;7.93;;;6.90;99.90;;;;;;5000756;28;20248;-64
2021/11/10 03:24:52;;;;;;;11.83;7.37;;;6.90;99.90;;;;;;5020190;28;20237;-64
2021/11/10 03:27:24;;;;;;;12.43;8.00;;;7.00;99.90;;;;;;5009578;28;20279;-64
2021/11/10 03:29:55;;;;;;;13.20;7.97;;;7.00;99.90;;;;;;5019597;28;20291;-64
2021/11/10 03:32:27;;;;;;;13.67;7.80;;;7.00;99.90;;;;;;4999746;28;20597;-64
2021/11/10 03:34:58;;;;;;;11.37;7.60;;;6.90;99.90;;;;;;5004858;28;20237;-62
2021/11/10 03:37:38;;;;;;;16.40;7.97;;;6.90;99.90;;;;;;5007304;28;20326;-62
2021/11/10 03:40:12;;;;;;;15.10;8.03;;;6.90;99.90;;;;;;4994382;28;20312;-62
2021/11/10 03:42:47;;;;;;;11.57;7.47;;;6.90;99.90;;;;;;4998487;28;20278;-62
2021/11/10 03:45:18;;;;;;;14.37;7.40;;;6.80;99.90;;;;;;5003259;28;20735;-62
2021/11/10 03:47:46;;;;;;;13.10;8.07;;;6.90;99.90;;;;;;5019470;28;20276;-62
2021/11/10 03:50:16;;;;;;;12.67;8.13;;;6.80;99.90;;;;;;5003240;28;20252;-62
2021/11/10 03:52:45;;;;;;;13.93;8.60;;;6.80;99.90;;;;;;5005854;28;20694;-62
2021/11/10 03:55:14;;;;;;;12.07;7.73;;;6.70;99.90;;;;;;5004881;28;20295;-62
2021/11/10 03:57:45;;;;;;;11.17;7.70;;;6.70;99.90;;;;;;5000180;28;20241;-62
2021/11/10 04:00:14;;;;;;;13.60;8.13;;;6.70;99.90;;;;;;5018133;28;20237;-62
2021/11/10 04:02:43;;;;;;;9.90;7.00;;;6.70;99.90;;;;;;4996005;28;20312;-62
2021/11/10 04:05:20;;;;;;;10.70;7.30;;;6.70;99.90;;;;;;5013872;28;20300;-63
2021/11/10 04:07:53;;;;;;;13.73;7.97;;;6.60;99.90;;;;;;5005716;28;20728;-62
2021/11/10 04:10:22;;;;;;;11.60;7.53;;;6.70;99.90;;;;;;5008952;28;20357;-62
2021/11/10 04:12:51;;;;;;;10.97;7.90;;;6.60;99.90;;;;;;5017176;28;20716;-62
2021/11/10 04:15:22;;;;;;;13.00;8.00;;;6.60;99.90;;;;;;5013460;28;20702;-62
2021/11/10 04:17:50;;;;;;;13.87;8.57;;;6.60;99.90;;;;;;5007142;28;20241;-62
2021/11/10 04:20:19;;;;;;;13.27;8.53;;;6.60;99.90;;;;;;5018694;28;20253;-62
2021/11/10 04:22:47;;;;;;;10.10;8.20;;;6.50;99.90;;;;;;5006250;28;20245;-62
2021/11/10 04:25:17;;;;;;;12.27;7.93;;;6.50;99.90;;;;;;5019852;28;20500;-62
2021/11/10 04:27:47;;;;;;;11.20;7.57;;;6.50;99.90;;;;;;5001016;28;20318;-62
2021/11/10 04:30:16;;;;;;;13.67;8.53;;;6.50;99.90;;;;;;5006587;28;20253;-62
2021/11/10 04:32:45;;;;;;;12.07;8.27;;;6.50;99.90;;;;;;5016312;28;20291;-62
2021/11/10 04:35:16;;;;;;;13.67;8.73;;;6.50;99.90;;;;;;5001987;28;20664;-62
2021/11/10 04:37:46;;;;;;;13.20;8.33;;;6.50;99.90;;;;;;4999841;28;20237;-62
2021/11/10 04:40:14;;;;;;;12.03;7.97;;;6.40;99.90;;;;;;5008688;28;20288;-62
2021/11/10 04:42:44;;;;;;;11.97;7.90;;;6.50;99.90;;;;;;5012484;28;20730;-62
2021/11/10 04:45:21;;;;;;;12.37;8.27;;;6.40;99.90;;;;;;4991931;28;20989;-62
2021/11/10 04:47:49;;;;;;;12.53;8.60;;;6.40;99.90;;;;;;4998259;28;20237;-62
2021/11/10 04:50:18;;;;;;;12.90;9.10;;;6.40;99.90;;;;;;4991219;28;20324;-62
2021/11/10 04:52:46;;;;;;;12.57;8.77;;;6.40;99.90;;;;;;5012263;28;20236;-62
2021/11/10 04:55:15;;;;;;;9.93;8.67;;;6.40;99.90;;;;;;4995249;28;20255;-62
2021/11/10 04:57:45;;;;;;;13.10;9.07;;;6.50;99.90;;;;;;5013979;28;20721;-62
2021/11/10 05:00:14;;;;;;;13.73;9.37;;;6.40;99.90;;;;;;4995739;28;20564;-62
2021/11/10 05:02:47;;;;;;;12.83;9.07;;;6.40;99.90;;;;;;5011684;28;20239;-62
2021/11/10 05:05:19;;;;;;;15.10;9.90;;;6.40;99.90;;;;;;5012460;28;20267;-62
2021/11/10 05:07:49;;;;;;;14.73;8.93;;;6.30;99.90;;;;;;5012031;28;20256;-62
2021/11/10 05:10:18;;;;;;;13.07;9.00;;;6.30;99.90;;;;;;5004294;28;20245;-62
2021/11/10 05:12:53;;;;;;;14.57;9.30;;;6.40;99.90;;;;;;4996692;28;20482;-62
2021/11/10 05:15:21;;;;;;;15.83;9.37;;;6.30;99.90;;;;;;5002794;28;20236;-62
2021/11/10 05:17:50;;;;;;;13.87;9.23;;;6.30;99.90;;;;;;5015141;28;20244;-62
2021/11/10 05:20:23;;;;;;;16.57;8.97;;;6.30;99.90;;;;;;5002416;28;20736;-62
2021/11/10 05:22:51;;;;;;;14.23;9.90;;;6.30;99.90;;;;;;4997384;28;20702;-62
2021/11/10 05:25:19;;;;;;;13.20;9.30;;;6.40;99.90;;;;;;5004559;28;20312;-63
2021/11/10 05:27:49;;;;;;;12.50;9.57;;;6.40;99.90;;;;;;5000426;28;20242;-62
2021/11/10 05:30:18;;;;;;;14.67;9.13;;;6.40;99.90;;;;;;5002130;28;20229;-62
2021/11/10 05:32:47;;;;;;;13.37;9.43;;;6.30;99.90;;;;;;4999460;28;20780;-62
2021/11/10 05:35:15;;;;;;;15.40;9.87;;;6.30;99.90;;;;;;5006061;28;20720;-62
2021/11/10 05:37:43;;;;;;;11.80;9.13;;;6.30;99.90;;;;;;5001169;28;20896;-62
2021/11/10 05:40:12;;;;;;;13.80;9.73;;;6.20;99.90;;;;;;5002560;28;20256;-62
2021/11/10 05:42:40;;;;;;;14.03;9.27;;;6.30;99.90;;;;;;5003274;28;20654;-62
2021/11/10 05:45:10;;;;;;;13.73;8.43;;;6.20;99.90;;;;;;5005648;28;20468;-62
2021/11/10 05:47:39;;;;;;;12.83;9.23;;;6.20;99.90;;;;;;4997599;28;20337;-62
2021/11/10 05:50:09;;;;;;;13.10;9.37;;;6.20;99.90;;;;;;4997356;28;20480;-62
2021/11/10 05:52:40;;;;;;;13.23;9.50;;;6.20;99.90;;;;;;5000811;28;20242;-62
2021/11/10 05:55:09;;;;;;;16.47;10.23;;;6.20;99.90;;;;;;4998679;28;20247;-62
2021/11/10 05:57:39;;;;;;;14.93;10.20;;;6.20;99.90;;;;;;5000666;28;20238;-62
2021/11/10 06:00:11;;;;;;;13.27;9.77;;;6.20;99.90;;;;;;5001615;28;20252;-62
2021/11/10 06:02:44;;;;;;;13.73;9.80;;;6.20;99.90;;;;;;4991907;28;20506;-62
2021/11/10 06:05:15;;;;;;;12.90;9.30;;;6.20;99.90;;;;;;5004284;28;20483;-62
2021/11/10 06:07:45;;;;;;;12.87;9.90;;;6.20;99.90;;;;;;5002280;28;20265;-62
2021/11/10 06:10:14;;;;;;;14.47;9.87;;;6.20;99.90;;;;;;5000866;28;20551;-62
2021/11/10 06:12:42;;;;;;;15.17;10.43;;;6.20;99.90;;;;;;4995188;28;20495;-62
2021/11/10 06:15:11;;;;;;;14.07;10.00;;;6.30;99.90;;;;;;4997987;28;20472;-62
2021/11/10 06:17:39;;;;;;;14.40;10.10;;;6.30;99.90;;;;;;5004138;28;20530;-62
2021/11/10 06:20:11;;;;;;;13.63;9.47;;;6.30;99.90;;;;;;5004898;28;20708;-62
2021/11/10 06:22:40;;;;;;;14.53;10.20;;;6.30;99.90;;;;;;5000676;28;20900;-62
2021/11/10 06:25:10;;;;;;;14.77;9.77;;;6.30;99.90;;;;;;4999658;28;20246;-62
2021/11/10 06:27:38;;;;;;;17.23;10.53;;;6.30;99.90;;;;;;5005669;28;20245;-62
2021/11/10 06:30:08;;;;;;;13.00;9.37;;;6.20;99.90;;;;;;5005751;28;20547;-62
2021/11/10 06:32:36;;;;;;;15.60;9.97;;;6.20;99.90;;;;;;4998441;28;20488;-62
2021/11/10 06:35:06;;;;;;;16.27;10.17;;;6.20;99.90;;;;;;5008105;28;21065;-62
2021/11/10 06:37:36;;;;;;;16.07;10.80;;;6.20;99.90;;;;;;4996021;28;20268;-62
2021/11/10 06:40:05;;;;;;;16.33;10.27;;;6.30;99.90;;;;;;5000375;28;20570;-62
2021/11/10 06:42:34;;;;;;;14.67;10.47;;;6.20;99.90;;;;;;5001300;28;20772;-62
2021/11/10 06:45:02;;;;;;;17.70;10.77;;;6.30;99.90;;;;;;4996791;28;20572;-62
2021/11/10 06:47:31;;;;;;;13.17;9.90;;;6.30;99.90;;;;;;4991753;28;20350;-62
2021/11/10 06:49:59;;;;;;;13.90;10.00;;;6.30;99.90;;;;;;4997748;28;20567;-62
2021/11/10 06:52:27;;;;;;;15.23;10.97;;;6.40;99.90;;;;;;4994954;28;20818;-62
2021/11/10 06:54:57;;;;;;;14.97;10.80;;;6.50;99.90;;;;;;5000031;28;20251;-62
2021/11/10 06:57:25;;;;;;;18.93;10.83;;;6.40;99.90;;;;;;4999803;28;20491;-62
2021/11/10 06:59:54;;;;;;;15.80;10.80;;;6.40;99.90;;;;;;4999091;28;20276;-62
2021/11/10 07:02:22;;;;;;;13.93;11.17;;;6.50;99.90;;;;;;5001423;28;20567;-62
2021/11/10 07:04:51;;;;;;;16.40;10.17;;;6.50;99.90;;;;;;4999999;28;20236;-62
2021/11/10 07:07:19;;;;;;;13.37;10.27;;;6.50;99.90;;;;;;5000234;28;20511;-62
2021/11/10 07:09:48;;;;;;;15.70;10.57;;;6.50;99.90;;;;;;5000016;28;20299;-62
2021/11/10 07:12:17;;;;;;;14.40;11.50;;;6.60;99.90;;;;;;4991434;28;20260;-62
2021/11/10 07:14:45;;;;;;;17.80;12.40;;;6.60;99.90;;;;;;5005278;28;20571;-62
2021/11/10 07:17:13;;;;;;;15.07;11.57;;;6.70;99.90;;;;;;5001948;28;20945;-62
2021/11/10 07:19:42;;;;;;;18.27;12.40;;;6.70;99.90;;;;;;5001219;28;20837;-62
2021/11/10 07:22:10;;;;;;;15.77;11.43;;;6.70;99.90;;;;;;4997808;28;20488;-62
2021/11/10 07:24:38;;;;;;;15.03;10.90;;;6.80;99.90;;;;;;5001386;28;20345;-62
2021/11/10 07:27:07;;;;;;;15.73;11.93;;;6.80;99.90;;;;;;5003262;28;20329;-62
2021/11/10 07:29:37;;;;;;;17.27;12.23;;;6.80;99.90;;;;;;5002400;28;20225;-62
2021/11/10 07:32:07;;;;;;;15.20;11.77;;;6.80;99.90;;;;;;4998540;28;20245;-62
2021/11/10 07:34:36;;;;;;;16.23;11.10;;;6.90;99.90;;;;;;5001439;28;20484;-62
2021/11/10 07:37:05;;;;;;;15.20;10.53;;;6.90;99.90;;;;;;5004642;28;20314;-62
2021/11/10 07:39:33;;;;;;;17.40;11.43;;;6.90;99.90;;;;;;4989577;28;20579;-62
2021/11/10 07:42:03;;;;;;;14.93;10.80;;;7.00;99.90;;;;;;4998048;28;20605;-62
2021/11/10 07:44:31;;;;;;;16.83;11.43;;;7.10;99.90;;;;;;4995006;28;20237;-62
2021/11/10 07:47:10;;;;;;;16.10;10.97;;;7.10;99.90;;;;;;4998825;28;20306;-62
2021/11/10 07:49:39;;;;;;;15.57;11.10;;;7.10;99.90;;;;;;4994372;28;20815;-62
2021/11/10 07:52:08;;;;;;;17.43;12.23;;;7.10;99.90;;;;;;4996013;28;20265;-62
2021/11/10 07:54:36;;;;;;;15.27;11.40;;;7.20;99.90;;;;;;5001180;28;20715;-62
2021/11/10 07:57:05;;;;;;;15.57;11.50;;;7.20;99.90;;;;;;5001697;28;20534;-62
2021/11/10 07:59:33;;;;;;;17.00;11.70;;;7.20;99.90;;;;;;4990683;28;20240;-62
2021/11/10 08:02:04;;;;;;;16.60;11.87;;;7.20;99.90;;;;;;5004054;28;20241;-62
2021/11/10 08:04:32;;;;;;;14.83;11.50;;;7.40;99.90;;;;;;4993851;28;20241;-62
2021/11/10 08:07:01;;;;;;;15.70;12.10;;;7.40;99.90;;;;;;4996688;28;20242;-62
2021/11/10 08:09:29;;;;;;;16.23;11.80;;;7.40;99.90;;;;;;4997116;28;20299;-62
2021/11/10 08:11:58;;;;;;;18.60;12.03;;;7.40;99.90;;;;;;5001723;28;20233;-62
2021/11/10 08:14:29;;;;;;;15.97;12.47;;;7.50;99.90;;;;;;4996697;28;20244;-62
2021/11/10 08:16:57;;;;;;;16.37;12.23;;;7.50;99.90;;;;;;4993265;28;20492;-62
2021/11/10 08:19:26;;;;;;;15.17;12.27;;;7.50;99.90;;;;;;5001123;28;20666;-62
2021/11/10 08:21:54;;;;;;;16.20;11.90;;;7.60;99.90;;;;;;4999806;28;20233;-62
2021/11/10 08:24:26;;;;;;;18.00;12.80;;;7.60;99.90;;;;;;4997616;28;20650;-62
2021/11/10 08:26:54;;;;;;;16.10;12.57;;;7.60;99.90;;;;;;4998718;28;20664;-62
2021/11/10 08:29:24;;;;;;;18.10;12.80;;;7.60;99.90;;;;;;5001620;28;20249;-64
2021/11/10 08:31:56;;;;;;;15.97;12.23;;;7.70;99.90;;;;;;4996263;28;20238;-63
2021/11/10 08:34:25;;;;;;;17.30;12.87;;;7.70;99.90;;;;;;4997479;28;20245;-63
2021/11/10 08:36:53;;;;;;;15.77;12.17;;;7.80;99.90;;;;;;4996654;28;20236;-63
2021/11/10 08:39:25;;;;;;;17.43;12.87;;;7.80;99.90;;;;;;4995549;28;20245;-64
2021/11/10 08:41:54;;;;;;;16.20;12.97;;;7.90;99.90;;;;;;4994446;28;20247;-64
2021/11/10 08:44:22;;;;;;;19.23;12.07;;;7.90;99.90;;;;;;4993152;28;20249;-63
2021/11/10 08:46:50;;;;;;;19.40;12.50;;;8.00;99.90;;;;;;4996927;28;20265;-64
2021/11/10 08:49:18;;;;;;;15.47;12.37;;;8.00;99.90;;;;;;4999718;28;20248;-63
2021/11/10 08:51:48;;;;;;;17.87;12.60;;;8.00;99.90;;;;;;5002237;28;20391;-64
2021/11/10 08:54:16;;;;;;;14.73;12.40;;;8.10;99.90;;;;;;4992475;28;20272;-63
2021/11/10 08:56:44;;;;;;;19.07;13.50;;;8.20;99.90;;;;;;4998160;28;20247;-63
2021/11/10 08:59:13;;;;;;;17.13;13.07;;;8.30;99.90;;;;;;5000511;28;20723;-63
2021/11/10 09:01:41;;;;;;;17.53;12.60;;;8.30;99.90;;;;;;4997325;28;20245;-63
2021/11/10 09:04:15;;;;;;;17.97;11.80;;;8.30;99.90;;;;;;4998202;28;20729;-64
2021/11/10 09:06:48;;;;;;;16.70;12.13;;;8.20;99.90;;;;;;4999832;28;20245;-63
2021/11/10 09:09:17;;;;;;;14.50;11.33;;;8.20;99.90;;;;;;4994013;28;20713;-63
2021/11/10 09:11:48;;;;;;;18.40;12.33;;;8.30;99.90;;;;;;4997959;28;20241;-63
2021/11/10 09:14:17;;;;;;;14.90;11.57;;;8.20;99.90;;;;;;5003305;28;20259;-63
2021/11/10 09:16:46;;;;;;;17.40;13.17;;;8.20;99.90;;;;;;5003266;28;20236;-63
2021/11/10 09:19:14;;;;;;;18.17;12.77;;;8.20;99.90;;;;;;4992424;28;20713;-63
2021/11/10 09:21:43;;;;;;;17.47;13.50;;;8.20;99.90;;;;;;5002563;28;20245;-64
2021/11/10 09:24:14;;;;;;;17.57;12.33;;;8.20;99.90;;;;;;4996376;28;20245;-64
2021/11/10 09:26:42;;;;;;;17.97;11.93;;;8.10;99.90;;;;;;4998104;28;20244;-63
2021/11/10 09:29:11;;;;;;;15.90;11.70;;;8.10;99.90;;;;;;5002686;28;20241;-63
2021/11/10 09:31:40;;;;;;;16.00;11.90;;;8.10;99.90;;;;;;4994230;28;20263;-63
2021/11/10 09:34:11;;;;;;;15.77;12.33;;;8.10;99.90;;;;;;4994548;28;20252;-64
2021/11/10 09:36:46;;;;;;;16.97;11.43;;;8.20;99.90;;;;;;4999847;28;20244;-63
2021/11/10 09:39:18;;;;;;;14.60;11.50;;;8.20;99.90;;;;;;4995367;28;20246;-64
2021/11/10 09:41:48;;;;;;;15.30;11.33;;;8.30;99.90;;;;;;4996344;28;20268;-63
2021/11/10 09:44:17;;;;;;;14.30;11.07;;;8.40;99.90;;;;;;5001739;28;20245;-64
2021/11/10 09:46:46;;;;;;;15.80;11.20;;;8.50;99.90;;;;;;5001245;28;20320;-63
2021/11/10 09:49:17;;;;;;;15.50;11.47;;;8.50;99.90;;;;;;4993681;28;20719;-64
2021/11/10 09:51:48;;;;;;;16.30;11.43;;;8.60;99.90;;;;;;5006140;28;20776;-63
2021/11/10 09:54:18;;;;;;;14.73;11.80;;;8.60;99.90;;;;;;5003630;28;20249;-64
2021/11/10 09:56:47;;;;;;;15.53;12.03;;;8.70;99.90;;;;;;5006011;28;20331;-63
2021/11/10 09:59:18;;;;;;;17.57;12.00;;;8.80;99.90;;;;;;4998313;28;20245;-64
2021/11/10 10:01:46;;;;;;;15.57;11.93;;;8.80;99.90;;;;;;4987373;28;20800;-64
2021/11/10 10:04:15;;;;;;;15.60;11.93;;;8.90;99.90;;;;;;4998924;28;20319;-64
2021/11/10 10:06:44;;;;;;;18.83;13.13;;;9.00;99.90;;;;;;4993291;28;20299;-63
2021/11/10 10:09:13;;;;;;;15.60;11.70;;;9.20;99.90;;;;;;5004397;28;20680;-63
2021/11/10 10:11:43;;;;;;;14.60;11.67;;;9.20;99.90;;;;;;5005077;28;20537;-63
2021/11/10 10:14:11;;;;;;;13.93;11.60;;;9.40;99.90;;;;;;5008855;28;20241;-64
2021/11/10 10:16:39;;;;;;;16.87;11.80;;;9.70;99.90;;;;;;5001039;28;20283;-64
2021/11/10 10:19:09;;;;;;;16.17;11.90;;;10.00;99.90;;;;;;5000605;28;20272;-63
2021/11/10 10:21:42;;;;;;;16.10;11.73;;;10.20;99.90;;;;;;4997329;28;20261;-64
2021/11/10 10:24:14;;;;;;;16.50;11.47;;;10.50;99.90;;;;;;4997370;28;20320;-64
2021/11/10 10:26:44;;;;;;;16.07;11.13;;;10.60;99.90;;;;;;5002771;28;20308;-64
2021/11/10 10:29:14;;;;;;;13.43;10.93;;;10.70;99.90;;;;;;4995226;28;20247;-64
2021/11/10 10:31:43;;;;;;;16.93;10.17;;;10.90;99.90;;;;;;5000033;28;20262;-64
2021/11/10 10:34:14;;;;;;;11.67;10.20;;;10.80;99.90;;;;;;4995111;28;20271;-63
2021/11/10 10:36:44;;;;;;;14.03;10.97;;;10.60;99.90;;;;;;5000642;28;20249;-64
2021/11/10 10:39:16;;;;;;;13.93;10.17;;;10.40;99.90;;;;;;4997998;28;20238;-64
2021/11/10 10:41:51;;;;;;;13.63;10.50;;;10.20;99.90;;;;;;4998503;28;20280;-63
2021/11/10 10:44:22;;;;;;;16.60;10.40;;;10.10;99.90;;;;;;5000088;28;20899;-64
2021/11/10 10:46:57;;;;;;;17.20;11.57;;;10.00;99.90;;;;;;5002610;28;20234;-63
2021/11/10 10:49:30;;;;;;;14.17;11.43;;;10.00;99.90;;;;;;4995147;28;20332;-64
2021/11/10 10:52:11;;;;;;;13.97;11.23;;;9.90;99.90;;;;;;4993147;28;20368;-64
2021/11/10 10:54:39;;;;;;;15.63;11.30;;;10.00;99.90;;;;;;4995630;28;20247;-63
2021/11/10 10:57:10;;;;;;;14.63;11.43;;;10.00;99.90;;;;;;4996835;28;20759;-64
2021/11/10 10:59:38;;;;;;;14.70;11.60;;;10.00;99.90;;;;;;4994754;28;20307;-67
2021/11/10 11:02:07;;;;;;;17.57;11.23;;;9.90;99.90;;;;;;4996671;28;20311;-64
2021/11/10 11:04:42;;;;;;;15.03;11.13;;;9.80;99.90;;;;;;4998853;28;20234;-64
2021/11/10 11:07:12;;;;;;;15.57;11.27;;;9.80;99.90;;;;;;4997080;28;20241;-64
2021/11/10 11:09:42;;;;;;;16.00;10.80;;;9.70;99.90;;;;;;5002213;28;20246;-64
2021/11/10 11:12:20;;;;;;;13.93;11.07;;;9.80;99.90;;;;;;4997889;28;20329;-64
2021/11/10 11:14:52;;;;;;;12.83;10.90;;;9.80;99.90;;;;;;5021351;28;20268;-64
2021/11/10 11:17:29;;;;;;;12.80;10.40;;;9.70;99.90;;;;;;5022408;28;20697;-64
2021/11/10 11:19:59;;;;;;;14.57;10.77;;;9.70;99.90;;;;;;5019261;28;20260;-64
2021/11/10 11:22:30;;;;;;;16.23;11.23;;;9.70;99.90;;;;;;5021051;28;20799;-64
2021/11/10 11:25:09;;;;;;;14.00;10.47;;;9.70;99.90;;;;;;5020373;28;20240;-64
2021/11/10 11:27:40;;;;;;;14.40;11.27;;;9.80;99.90;;;;;;5014062;28;20259;-64
2021/11/10 11:30:11;;;;;;;15.13;10.63;;;9.80;99.90;;;;;;5018956;28;20508;-64
2021/11/10 11:32:41;;;;;;;14.20;10.97;;;9.90;99.90;;;;;;5016061;28;20300;-64
2021/11/10 11:35:14;;;;;;;15.80;10.63;;;9.90;99.90;;;;;;5011715;28;20245;-64
2021/11/10 11:37:44;;;;;;;16.40;10.47;;;9.90;99.90;;;;;;5013806;28;20610;-64
2021/11/10 11:40:14;;;;;;;14.70;10.00;;;9.90;99.90;;;;;;5013850;28;20238;-64
2021/11/10 11:42:44;;;;;;;11.83;10.60;;;10.00;99.90;;;;;;5016157;28;20247;-64
2021/11/10 11:45:13;;;;;;;12.70;10.00;;;10.00;99.90;;;;;;5016922;28;20267;-64
2021/11/10 11:47:42;;;;;;;15.10;10.87;;;10.10;99.90;;;;;;5012508;28;20234;-64
2021/11/10 11:50:11;;;;;;;14.40;10.30;;;10.10;99.90;;;;;;5019959;28;20260;-64
2021/11/10 11:52:42;;;;;;;12.67;10.60;;;10.10;99.90;;;;;;5013499;28;20243;-63
2021/11/10 11:55:21;;;;;;;15.03;9.87;;;10.10;99.90;;;;;;5017532;28;20273;-64
2021/11/10 11:58:02;;;;;;;13.90;10.70;;;10.10;99.90;;;;;;5021136;28;20249;-64
2021/11/10 12:00:32;;;;;;;13.70;11.03;;;10.20;99.90;;;;;;5014052;28;20886;-64
2021/11/10 12:03:00;;;;;;;16.30;11.53;;;10.20;99.90;;;;;;5013150;28;20335;-64
2021/11/10 12:05:29;;;;;;;15.23;10.87;;;10.20;99.90;;;;;;5016550;28;20782;-64
2021/11/10 12:07:58;;;;;;;16.00;11.53;;;10.20;99.90;;;;;;5015272;28;20686;-64
2021/11/10 12:10:45;;;;;;;17.03;12.63;;;10.20;99.90;;;;;;5015641;28;20593;-63
2021/11/10 12:13:24;;;;;;;13.57;11.03;;;10.20;99.90;;;;;;5017002;28;20242;-64
2021/11/10 12:16:17;;;;;;;16.37;11.20;;;10.20;99.90;;;;;;5018725;28;20269;-64
2021/11/10 12:18:58;;;;;;;14.10;10.80;;;10.20;99.90;;;;;;5017303;28;20240;-64
2021/11/10 12:21:39;;;;;;;17.17;11.53;;;10.20;99.90;;;;;;5019334;28;20561;-64
2021/11/10 12:24:19;;;;;;;13.07;10.90;;;10.20;99.90;;;;;;5015356;28;20244;-64
2021/11/10 12:27:22;;;;;;;12.30;10.67;;;10.20;99.90;;;;;;5014626;28;20237;-64
2021/11/10 12:29:59;;;;;;;14.07;10.00;;;10.10;99.90;;;;;;5016859;28;20313;-64
2021/11/10 12:32:48;;;;;;;13.10;10.67;;;10.10;99.90;;;;;;5015995;28;20241;-64
2021/11/10 12:35:43;;;;;;;17.73;11.43;;;10.10;99.90;;;;;;5019001;28;20237;-64
2021/11/10 12:38:20;;;;;;;15.33;11.03;;;10.10;99.90;;;;;;5016653;28;20295;-64
2021/11/10 12:40:57;;;;;;;14.57;10.87;;;10.10;99.90;;;;;;5018074;28;20641;-64
2021/11/10 12:43:36;;;;;;;13.30;10.83;;;10.10;99.90;;;;;;5014086;28;20241;-64
2021/11/10 12:46:07;;;;;;;14.97;10.70;;;10.10;99.90;;;;;;5014238;28;20237;-64
2021/11/10 12:48:40;;;;;;;15.67;11.07;;;10.00;99.90;;;;;;5014208;28;20242;-64
2021/11/10 12:51:28;;;;;;;16.80;11.37;;;10.10;99.90;;;;;;5010826;28;20252;-64
2021/11/10 12:53:59;;;;;;;12.97;10.40;;;10.10;99.90;;;;;;5013314;28;20403;-64
2021/11/10 12:56:56;;;;;;;12.43;10.17;;;10.00;99.90;;;;;;5012556;28;20238;-64
2021/11/10 12:59:27;;;;;;;13.97;11.13;;;10.00;99.90;;;;;;4985158;28;20321;-64